sensor_id;sensor_type;location;lat;lon;timestamp;P1;durP1;ratioP1;P2;durP2;ratioP2
55589;SDS011;41452;42.780;23.116;2022-07-30T00:01:39;10.43;;;4.93;;
55589;SDS011;41452;42.780;23.116;2022-07-30T00:04:05;6.63;;;4.78;;
55589;SDS011;41452;42.780;23.116;2022-07-30T00:06:30;10.73;;;5.47;;
55589;SDS011;41452;42.780;23.116;2022-07-30T00:08:56;7.78;;;4.30;;
55589;SDS011;41452;42.780;23.116;2022-07-30T00:11:22;6.15;;;4.32;;
55589;SDS011;41452;42.780;23.116;2022-07-30T00:13:48;7.28;;;4.95;;
55589;SDS011;41452;42.780;23.116;2022-07-30T00:16:14;8.85;;;5.15;;
55589;SDS011;41452;42.780;23.116;2022-07-30T00:18:39;8.15;;;4.55;;
55589;SDS011;41452;42.780;23.116;2022-07-30T00:21:04;6.57;;;4.68;;
55589;SDS011;41452;42.780;23.116;2022-07-30T00:23:30;5.07;;;4.05;;
55589;SDS011;41452;42.780;23.116;2022-07-30T00:25:56;6.28;;;4.53;;
55589;SDS011;41452;42.780;23.116;2022-07-30T00:28:22;6.32;;;4.75;;
55589;SDS011;41452;42.780;23.116;2022-07-30T00:30:47;7.07;;;4.95;;
55589;SDS011;41452;42.780;23.116;2022-07-30T00:33:13;9.77;;;5.15;;
55589;SDS011;41452;42.780;23.116;2022-07-30T00:35:38;7.70;;;4.57;;
55589;SDS011;41452;42.780;23.116;2022-07-30T00:38:04;6.63;;;4.80;;
55589;SDS011;41452;42.780;23.116;2022-07-30T00:40:29;7.05;;;4.85;;
55589;SDS011;41452;42.780;23.116;2022-07-30T00:42:54;6.32;;;4.30;;
55589;SDS011;41452;42.780;23.116;2022-07-30T00:45:20;10.73;;;4.80;;
55589;SDS011;41452;42.780;23.116;2022-07-30T00:47:46;8.32;;;4.50;;
55589;SDS011;41452;42.780;23.116;2022-07-30T00:50:12;5.22;;;4.28;;
55589;SDS011;41452;42.780;23.116;2022-07-30T00:52:38;6.93;;;5.07;;
55589;SDS011;41452;42.780;23.116;2022-07-30T00:55:05;5.35;;;4.32;;
55589;SDS011;41452;42.780;23.116;2022-07-30T00:57:33;5.45;;;4.15;;
55589;SDS011;41452;42.780;23.116;2022-07-30T00:59:58;6.10;;;4.15;;
55589;SDS011;41452;42.780;23.116;2022-07-30T01:02:24;8.75;;;4.20;;
55589;SDS011;41452;42.780;23.116;2022-07-30T01:04:49;8.68;;;4.32;;
55589;SDS011;41452;42.780;23.116;2022-07-30T01:07:15;9.98;;;4.38;;
55589;SDS011;41452;42.780;23.116;2022-07-30T01:09:40;6.60;;;4.13;;
55589;SDS011;41452;42.780;23.116;2022-07-30T01:12:06;6.45;;;4.07;;
55589;SDS011;41452;42.780;23.116;2022-07-30T01:14:34;5.53;;;4.28;;
55589;SDS011;41452;42.780;23.116;2022-07-30T01:17:00;5.25;;;3.92;;
55589;SDS011;41452;42.780;23.116;2022-07-30T01:19:27;5.72;;;4.22;;
55589;SDS011;41452;42.780;23.116;2022-07-30T01:24:51;6.90;;;4.25;;
55589;SDS011;41452;42.780;23.116;2022-07-30T01:27:19;5.72;;;4.55;;
55589;SDS011;41452;42.780;23.116;2022-07-30T01:29:46;6.07;;;4.35;;
55589;SDS011;41452;42.780;23.116;2022-07-30T01:32:14;8.90;;;4.18;;
55589;SDS011;41452;42.780;23.116;2022-07-30T01:34:42;5.93;;;4.22;;
55589;SDS011;41452;42.780;23.116;2022-07-30T01:37:10;11.18;;;4.15;;
55589;SDS011;41452;42.780;23.116;2022-07-30T01:39:37;6.78;;;4.20;;
55589;SDS011;41452;42.780;23.116;2022-07-30T01:42:03;9.80;;;4.35;;
55589;SDS011;41452;42.780;23.116;2022-07-30T01:44:32;6.10;;;4.40;;
55589;SDS011;41452;42.780;23.116;2022-07-30T01:46:59;7.80;;;5.22;;
55589;SDS011;41452;42.780;23.116;2022-07-30T01:49:27;6.30;;;4.25;;
55589;SDS011;41452;42.780;23.116;2022-07-30T01:51:53;8.38;;;4.15;;
55589;SDS011;41452;42.780;23.116;2022-07-30T01:54:20;6.88;;;4.28;;
55589;SDS011;41452;42.780;23.116;2022-07-30T01:56:48;4.97;;;3.90;;
55589;SDS011;41452;42.780;23.116;2022-07-30T01:59:17;5.88;;;4.35;;
55589;SDS011;41452;42.780;23.116;2022-07-30T02:01:44;6.95;;;4.05;;
55589;SDS011;41452;42.780;23.116;2022-07-30T02:04:10;7.10;;;4.35;;
55589;SDS011;41452;42.780;23.116;2022-07-30T02:06:41;6.25;;;4.07;;
55589;SDS011;41452;42.780;23.116;2022-07-30T02:09:11;6.20;;;3.85;;
55589;SDS011;41452;42.780;23.116;2022-07-30T02:11:41;5.65;;;4.40;;
55589;SDS011;41452;42.780;23.116;2022-07-30T02:14:28;7.55;;;4.38;;
55589;SDS011;41452;42.780;23.116;2022-07-30T02:16:58;5.75;;;4.45;;
55589;SDS011;41452;42.780;23.116;2022-07-30T02:19:29;8.45;;;4.07;;
55589;SDS011;41452;42.780;23.116;2022-07-30T02:22:02;8.00;;;4.25;;
55589;SDS011;41452;42.780;23.116;2022-07-30T02:24:31;5.65;;;4.10;;
55589;SDS011;41452;42.780;23.116;2022-07-30T02:27:09;6.95;;;4.43;;
55589;SDS011;41452;42.780;23.116;2022-07-30T02:29:39;9.75;;;4.20;;
55589;SDS011;41452;42.780;23.116;2022-07-30T02:32:09;5.68;;;4.40;;
55589;SDS011;41452;42.780;23.116;2022-07-30T02:34:38;5.97;;;4.30;;
55589;SDS011;41452;42.780;23.116;2022-07-30T02:37:07;7.40;;;4.00;;
55589;SDS011;41452;42.780;23.116;2022-07-30T02:39:35;7.97;;;4.90;;
55589;SDS011;41452;42.780;23.116;2022-07-30T02:42:01;5.53;;;4.00;;
55589;SDS011;41452;42.780;23.116;2022-07-30T02:44:28;9.43;;;4.72;;
55589;SDS011;41452;42.780;23.116;2022-07-30T02:46:55;7.30;;;4.10;;
55589;SDS011;41452;42.780;23.116;2022-07-30T02:49:22;6.05;;;4.15;;
55589;SDS011;41452;42.780;23.116;2022-07-30T02:51:49;6.78;;;4.05;;
55589;SDS011;41452;42.780;23.116;2022-07-30T02:54:16;5.75;;;4.13;;
55589;SDS011;41452;42.780;23.116;2022-07-30T02:56:43;6.25;;;4.55;;
55589;SDS011;41452;42.780;23.116;2022-07-30T02:59:13;6.10;;;4.40;;
55589;SDS011;41452;42.780;23.116;2022-07-30T03:01:41;4.88;;;3.90;;
55589;SDS011;41452;42.780;23.116;2022-07-30T03:04:08;6.15;;;4.43;;
55589;SDS011;41452;42.780;23.116;2022-07-30T03:06:35;6.40;;;3.95;;
55589;SDS011;41452;42.780;23.116;2022-07-30T03:09:02;6.38;;;4.75;;
55589;SDS011;41452;42.780;23.116;2022-07-30T03:11:28;7.07;;;4.80;;
55589;SDS011;41452;42.780;23.116;2022-07-30T03:13:55;8.13;;;4.15;;
55589;SDS011;41452;42.780;23.116;2022-07-30T03:16:21;6.20;;;4.20;;
55589;SDS011;41452;42.780;23.116;2022-07-30T03:18:48;6.82;;;4.85;;
55589;SDS011;41452;42.780;23.116;2022-07-30T03:21:14;7.55;;;5.03;;
55589;SDS011;41452;42.780;23.116;2022-07-30T03:23:41;10.38;;;4.30;;
55589;SDS011;41452;42.780;23.116;2022-07-30T03:26:09;6.80;;;4.70;;
55589;SDS011;41452;42.780;23.116;2022-07-30T03:28:37;7.50;;;4.70;;
55589;SDS011;41452;42.780;23.116;2022-07-30T03:31:04;7.80;;;4.68;;
55589;SDS011;41452;42.780;23.116;2022-07-30T03:33:31;8.30;;;4.40;;
55589;SDS011;41452;42.780;23.116;2022-07-30T03:35:58;7.72;;;4.60;;
55589;SDS011;41452;42.780;23.116;2022-07-30T03:38:24;7.43;;;4.72;;
55589;SDS011;41452;42.780;23.116;2022-07-30T03:40:51;8.50;;;4.75;;
55589;SDS011;41452;42.780;23.116;2022-07-30T03:43:17;9.60;;;4.43;;
55589;SDS011;41452;42.780;23.116;2022-07-30T03:45:43;6.57;;;5.47;;
55589;SDS011;41452;42.780;23.116;2022-07-30T03:48:11;5.65;;;4.60;;
55589;SDS011;41452;42.780;23.116;2022-07-30T03:50:40;8.32;;;4.40;;
55589;SDS011;41452;42.780;23.116;2022-07-30T03:53:06;7.28;;;5.15;;
55589;SDS011;41452;42.780;23.116;2022-07-30T03:55:34;9.98;;;4.57;;
55589;SDS011;41452;42.780;23.116;2022-07-30T03:58:00;5.15;;;4.28;;
55589;SDS011;41452;42.780;23.116;2022-07-30T04:00:26;6.70;;;4.25;;
55589;SDS011;41452;42.780;23.116;2022-07-30T04:02:52;7.43;;;4.85;;
55589;SDS011;41452;42.780;23.116;2022-07-30T04:05:18;6.32;;;4.43;;
55589;SDS011;41452;42.780;23.116;2022-07-30T04:07:44;7.72;;;4.40;;
55589;SDS011;41452;42.780;23.116;2022-07-30T04:10:09;9.13;;;4.18;;
55589;SDS011;41452;42.780;23.116;2022-07-30T04:12:35;8.75;;;5.15;;
55589;SDS011;41452;42.780;23.116;2022-07-30T04:15:00;5.97;;;4.30;;
55589;SDS011;41452;42.780;23.116;2022-07-30T04:20:01;6.78;;;4.85;;
55589;SDS011;41452;42.780;23.116;2022-07-30T04:22:31;7.63;;;5.15;;
55589;SDS011;41452;42.780;23.116;2022-07-30T04:24:59;6.80;;;4.72;;
55589;SDS011;41452;42.780;23.116;2022-07-30T04:27:26;7.47;;;4.70;;
55589;SDS011;41452;42.780;23.116;2022-07-30T04:29:53;9.32;;;5.85;;
55589;SDS011;41452;42.780;23.116;2022-07-30T04:32:19;8.30;;;5.35;;
55589;SDS011;41452;42.780;23.116;2022-07-30T04:34:48;8.88;;;5.82;;
55589;SDS011;41452;42.780;23.116;2022-07-30T04:37:15;11.68;;;5.18;;
55589;SDS011;41452;42.780;23.116;2022-07-30T04:39:41;8.55;;;5.47;;
55589;SDS011;41452;42.780;23.116;2022-07-30T04:42:07;13.95;;;6.20;;
55589;SDS011;41452;42.780;23.116;2022-07-30T04:44:33;8.63;;;5.47;;
55589;SDS011;41452;42.780;23.116;2022-07-30T04:46:58;14.40;;;6.45;;
55589;SDS011;41452;42.780;23.116;2022-07-30T04:49:24;12.18;;;6.18;;
55589;SDS011;41452;42.780;23.116;2022-07-30T04:51:51;11.25;;;6.03;;
55589;SDS011;41452;42.780;23.116;2022-07-30T04:54:18;12.55;;;6.28;;
55589;SDS011;41452;42.780;23.116;2022-07-30T04:56:45;14.35;;;5.85;;
55589;SDS011;41452;42.780;23.116;2022-07-30T04:59:11;9.38;;;5.60;;
55589;SDS011;41452;42.780;23.116;2022-07-30T05:01:38;9.30;;;6.28;;
55589;SDS011;41452;42.780;23.116;2022-07-30T05:04:06;11.18;;;5.93;;
55589;SDS011;41452;42.780;23.116;2022-07-30T05:06:33;15.18;;;5.97;;
55589;SDS011;41452;42.780;23.116;2022-07-30T05:08:59;17.17;;;5.70;;
55589;SDS011;41452;42.780;23.116;2022-07-30T05:11:25;7.93;;;5.80;;
55589;SDS011;41452;42.780;23.116;2022-07-30T05:13:50;5.75;;;4.80;;
55589;SDS011;41452;42.780;23.116;2022-07-30T05:16:16;9.38;;;5.28;;
55589;SDS011;41452;42.780;23.116;2022-07-30T05:18:41;11.38;;;5.38;;
55589;SDS011;41452;42.780;23.116;2022-07-30T05:21:09;13.57;;;5.53;;
55589;SDS011;41452;42.780;23.116;2022-07-30T05:23:34;5.82;;;4.88;;
55589;SDS011;41452;42.780;23.116;2022-07-30T05:26:00;6.90;;;4.57;;
55589;SDS011;41452;42.780;23.116;2022-07-30T05:28:25;7.78;;;4.78;;
55589;SDS011;41452;42.780;23.116;2022-07-30T05:30:54;8.43;;;4.90;;
55589;SDS011;41452;42.780;23.116;2022-07-30T05:33:20;7.30;;;4.97;;
55589;SDS011;41452;42.780;23.116;2022-07-30T05:35:47;8.20;;;5.28;;
55589;SDS011;41452;42.780;23.116;2022-07-30T05:38:13;9.82;;;4.93;;
55589;SDS011;41452;42.780;23.116;2022-07-30T05:40:39;7.63;;;5.35;;
55589;SDS011;41452;42.780;23.116;2022-07-30T05:43:05;11.18;;;4.90;;
55589;SDS011;41452;42.780;23.116;2022-07-30T05:45:30;10.80;;;5.18;;
55589;SDS011;41452;42.780;23.116;2022-07-30T05:47:56;10.98;;;4.82;;
55589;SDS011;41452;42.780;23.116;2022-07-30T05:50:21;7.07;;;5.22;;
55589;SDS011;41452;42.780;23.116;2022-07-30T05:52:46;7.28;;;5.15;;
55589;SDS011;41452;42.780;23.116;2022-07-30T05:55:12;12.75;;;5.05;;
55589;SDS011;41452;42.780;23.116;2022-07-30T05:57:38;10.32;;;4.78;;
55589;SDS011;41452;42.780;23.116;2022-07-30T06:00:07;7.28;;;4.50;;
55589;SDS011;41452;42.780;23.116;2022-07-30T06:02:34;8.65;;;5.10;;
55589;SDS011;41452;42.780;23.116;2022-07-30T06:05:00;13.63;;;5.30;;
55589;SDS011;41452;42.780;23.116;2022-07-30T06:07:26;7.50;;;5.07;;
55589;SDS011;41452;42.780;23.116;2022-07-30T06:09:53;6.90;;;5.10;;
55589;SDS011;41452;42.780;23.116;2022-07-30T06:12:24;9.18;;;4.90;;
55589;SDS011;41452;42.780;23.116;2022-07-30T06:14:50;8.65;;;4.95;;
55589;SDS011;41452;42.780;23.116;2022-07-30T06:17:16;11.25;;;5.10;;
55589;SDS011;41452;42.780;23.116;2022-07-30T06:19:42;14.02;;;5.60;;
55589;SDS011;41452;42.780;23.116;2022-07-30T06:22:07;9.40;;;5.55;;
55589;SDS011;41452;42.780;23.116;2022-07-30T06:24:33;9.70;;;4.72;;
55589;SDS011;41452;42.780;23.116;2022-07-30T06:26:58;6.72;;;4.47;;
55589;SDS011;41452;42.780;23.116;2022-07-30T06:29:24;12.35;;;5.00;;
55589;SDS011;41452;42.780;23.116;2022-07-30T06:31:50;8.00;;;5.20;;
55589;SDS011;41452;42.780;23.116;2022-07-30T06:34:15;6.45;;;5.03;;
55589;SDS011;41452;42.780;23.116;2022-07-30T06:36:41;9.80;;;5.10;;
55589;SDS011;41452;42.780;23.116;2022-07-30T06:39:06;8.18;;;5.15;;
55589;SDS011;41452;42.780;23.116;2022-07-30T06:41:31;10.70;;;4.80;;
55589;SDS011;41452;42.780;23.116;2022-07-30T06:43:59;6.78;;;4.80;;
55589;SDS011;41452;42.780;23.116;2022-07-30T06:46:25;9.18;;;5.50;;
55589;SDS011;41452;42.780;23.116;2022-07-30T06:48:50;6.63;;;4.47;;
55589;SDS011;41452;42.780;23.116;2022-07-30T06:51:16;9.07;;;5.60;;
55589;SDS011;41452;42.780;23.116;2022-07-30T06:53:41;9.88;;;5.10;;
55589;SDS011;41452;42.780;23.116;2022-07-30T06:56:09;10.88;;;4.72;;
55589;SDS011;41452;42.780;23.116;2022-07-30T06:58:35;8.32;;;4.80;;
55589;SDS011;41452;42.780;23.116;2022-07-30T07:01:01;7.80;;;5.22;;
55589;SDS011;41452;42.780;23.116;2022-07-30T07:03:26;11.50;;;5.05;;
55589;SDS011;41452;42.780;23.116;2022-07-30T07:05:51;10.27;;;4.72;;
55589;SDS011;41452;42.780;23.116;2022-07-30T07:08:17;6.45;;;4.53;;
55589;SDS011;41452;42.780;23.116;2022-07-30T07:10:42;11.15;;;4.43;;
55589;SDS011;41452;42.780;23.116;2022-07-30T07:13:08;6.65;;;4.40;;
55589;SDS011;41452;42.780;23.116;2022-07-30T07:15:33;15.75;;;4.88;;
55589;SDS011;41452;42.780;23.116;2022-07-30T07:17:58;6.30;;;4.55;;
55589;SDS011;41452;42.780;23.116;2022-07-30T07:20:24;9.07;;;4.60;;
55589;SDS011;41452;42.780;23.116;2022-07-30T07:22:49;7.10;;;4.53;;
55589;SDS011;41452;42.780;23.116;2022-07-30T07:25:15;9.40;;;4.78;;
55589;SDS011;41452;42.780;23.116;2022-07-30T07:27:41;17.10;;;5.15;;
55589;SDS011;41452;42.780;23.116;2022-07-30T07:30:06;5.78;;;4.50;;
55589;SDS011;41452;42.780;23.116;2022-07-30T07:32:32;8.85;;;4.40;;
55589;SDS011;41452;42.780;23.116;2022-07-30T07:34:59;6.05;;;4.45;;
55589;SDS011;41452;42.780;23.116;2022-07-30T07:37:24;9.93;;;4.80;;
55589;SDS011;41452;42.780;23.116;2022-07-30T07:39:50;11.27;;;4.47;;
55589;SDS011;41452;42.780;23.116;2022-07-30T07:42:15;7.68;;;4.15;;
55589;SDS011;41452;42.780;23.116;2022-07-30T07:44:40;8.45;;;4.25;;
55589;SDS011;41452;42.780;23.116;2022-07-30T07:47:06;9.50;;;4.78;;
55589;SDS011;41452;42.780;23.116;2022-07-30T07:49:31;10.55;;;4.20;;
55589;SDS011;41452;42.780;23.116;2022-07-30T07:51:57;31.10;;;5.70;;
55589;SDS011;41452;42.780;23.116;2022-07-30T07:54:22;8.30;;;4.30;;
55589;SDS011;41452;42.780;23.116;2022-07-30T07:56:48;7.07;;;4.50;;
55589;SDS011;41452;42.780;23.116;2022-07-30T07:59:15;9.95;;;4.35;;
55589;SDS011;41452;42.780;23.116;2022-07-30T08:01:41;9.43;;;4.28;;
55589;SDS011;41452;42.780;23.116;2022-07-30T08:04:06;9.13;;;4.07;;
55589;SDS011;41452;42.780;23.116;2022-07-30T08:06:32;8.25;;;4.90;;
55589;SDS011;41452;42.780;23.116;2022-07-30T08:08:57;11.93;;;4.43;;
55589;SDS011;41452;42.780;23.116;2022-07-30T08:11:22;7.43;;;4.75;;
55589;SDS011;41452;42.780;23.116;2022-07-30T08:13:48;7.68;;;4.65;;
55589;SDS011;41452;42.780;23.116;2022-07-30T08:16:13;9.18;;;4.65;;
55589;SDS011;41452;42.780;23.116;2022-07-30T08:18:39;6.38;;;4.75;;
55589;SDS011;41452;42.780;23.116;2022-07-30T08:21:04;6.65;;;4.07;;
55589;SDS011;41452;42.780;23.116;2022-07-30T08:23:30;5.97;;;4.00;;
55589;SDS011;41452;42.780;23.116;2022-07-30T08:25:56;10.10;;;4.45;;
55589;SDS011;41452;42.780;23.116;2022-07-30T08:28:22;7.72;;;4.60;;
55589;SDS011;41452;42.780;23.116;2022-07-30T08:30:48;10.10;;;4.75;;
55589;SDS011;41452;42.780;23.116;2022-07-30T08:33:14;6.53;;;4.80;;
55589;SDS011;41452;42.780;23.116;2022-07-30T08:35:39;9.98;;;4.75;;
55589;SDS011;41452;42.780;23.116;2022-07-30T08:38:05;6.57;;;4.50;;
55589;SDS011;41452;42.780;23.116;2022-07-30T08:40:32;9.27;;;4.32;;
55589;SDS011;41452;42.780;23.116;2022-07-30T08:42:58;15.55;;;4.72;;
55589;SDS011;41452;42.780;23.116;2022-07-30T08:45:26;13.70;;;4.60;;
55589;SDS011;41452;42.780;23.116;2022-07-30T08:47:52;8.30;;;4.43;;
55589;SDS011;41452;42.780;23.116;2022-07-30T08:50:19;7.15;;;4.20;;
55589;SDS011;41452;42.780;23.116;2022-07-30T08:52:45;7.90;;;4.78;;
55589;SDS011;41452;42.780;23.116;2022-07-30T08:55:13;10.05;;;5.28;;
55589;SDS011;41452;42.780;23.116;2022-07-30T08:57:39;10.10;;;4.63;;
55589;SDS011;41452;42.780;23.116;2022-07-30T09:00:05;14.00;;;4.63;;
55589;SDS011;41452;42.780;23.116;2022-07-30T09:02:32;6.53;;;4.88;;
55589;SDS011;41452;42.780;23.116;2022-07-30T09:04:58;8.07;;;4.47;;
55589;SDS011;41452;42.780;23.116;2022-07-30T09:07:23;6.13;;;4.38;;
55589;SDS011;41452;42.780;23.116;2022-07-30T09:09:49;14.73;;;4.97;;
55589;SDS011;41452;42.780;23.116;2022-07-30T09:15:09;10.18;;;4.75;;
55589;SDS011;41452;42.780;23.116;2022-07-30T09:20:34;21.23;;;4.45;;
55589;SDS011;41452;42.780;23.116;2022-07-30T09:23:01;12.18;;;5.18;;
55589;SDS011;41452;42.780;23.116;2022-07-30T09:25:41;5.75;;;3.90;;
55589;SDS011;41452;42.780;23.116;2022-07-30T09:28:11;5.00;;;4.13;;
55589;SDS011;41452;42.780;23.116;2022-07-30T09:30:55;7.07;;;4.45;;
55589;SDS011;41452;42.780;23.116;2022-07-30T09:33:41;9.23;;;4.43;;
55589;SDS011;41452;42.780;23.116;2022-07-30T09:36:08;10.57;;;5.05;;
55589;SDS011;41452;42.780;23.116;2022-07-30T09:41:12;7.47;;;5.13;;
55589;SDS011;41452;42.780;23.116;2022-07-30T09:43:56;11.13;;;4.85;;
55589;SDS011;41452;42.780;23.116;2022-07-30T09:49:14;8.40;;;4.25;;
55589;SDS011;41452;42.780;23.116;2022-07-30T09:51:43;9.68;;;4.20;;
55589;SDS011;41452;42.780;23.116;2022-07-30T09:54:09;7.47;;;4.05;;
55589;SDS011;41452;42.780;23.116;2022-07-30T09:56:35;6.57;;;4.25;;
55589;SDS011;41452;42.780;23.116;2022-07-30T09:59:00;8.40;;;4.35;;
55589;SDS011;41452;42.780;23.116;2022-07-30T10:01:26;15.98;;;5.10;;
55589;SDS011;41452;42.780;23.116;2022-07-30T10:03:52;7.68;;;4.05;;
55589;SDS011;41452;42.780;23.116;2022-07-30T10:06:18;6.97;;;4.80;;
55589;SDS011;41452;42.780;23.116;2022-07-30T10:08:55;5.78;;;4.00;;
55589;SDS011;41452;42.780;23.116;2022-07-30T10:11:21;6.90;;;3.90;;
55589;SDS011;41452;42.780;23.116;2022-07-30T10:13:48;6.20;;;4.20;;
55589;SDS011;41452;42.780;23.116;2022-07-30T10:16:18;26.10;;;5.10;;
55589;SDS011;41452;42.780;23.116;2022-07-30T10:18:45;8.88;;;4.72;;
55589;SDS011;41452;42.780;23.116;2022-07-30T10:21:12;7.82;;;5.15;;
55589;SDS011;41452;42.780;23.116;2022-07-30T10:23:38;6.50;;;4.65;;
55589;SDS011;41452;42.780;23.116;2022-07-30T10:26:04;6.70;;;4.75;;
55589;SDS011;41452;42.780;23.116;2022-07-30T10:28:31;9.32;;;5.40;;
55589;SDS011;41452;42.780;23.116;2022-07-30T10:30:57;9.52;;;5.57;;
55589;SDS011;41452;42.780;23.116;2022-07-30T10:33:23;6.45;;;5.18;;
55589;SDS011;41452;42.780;23.116;2022-07-30T10:35:53;7.97;;;4.60;;
55589;SDS011;41452;42.780;23.116;2022-07-30T10:38:28;6.65;;;4.35;;
55589;SDS011;41452;42.780;23.116;2022-07-30T10:41:04;5.18;;;4.65;;
55589;SDS011;41452;42.780;23.116;2022-07-30T10:46:23;6.43;;;4.22;;
55589;SDS011;41452;42.780;23.116;2022-07-30T10:49:10;4.90;;;4.30;;
55589;SDS011;41452;42.780;23.116;2022-07-30T10:51:45;6.05;;;4.90;;
55589;SDS011;41452;42.780;23.116;2022-07-30T10:57:15;8.05;;;4.95;;
55589;SDS011;41452;42.780;23.116;2022-07-30T11:02:16;11.10;;;5.20;;
55589;SDS011;41452;42.780;23.116;2022-07-30T11:04:43;6.30;;;4.80;;
55589;SDS011;41452;42.780;23.116;2022-07-30T11:09:49;6.43;;;4.85;;
55589;SDS011;41452;42.780;23.116;2022-07-30T11:12:50;6.65;;;4.97;;
55589;SDS011;41452;42.780;23.116;2022-07-30T11:15:09;7.00;;;5.22;;
55589;SDS011;41452;42.780;23.116;2022-07-30T11:20:24;6.78;;;5.60;;
55589;SDS011;41452;42.780;23.116;2022-07-30T11:22:49;6.38;;;5.45;;
55589;SDS011;41452;42.780;23.116;2022-07-30T11:27:47;7.55;;;4.90;;
55589;SDS011;41452;42.780;23.116;2022-07-30T11:32:39;8.43;;;5.00;;
55589;SDS011;41452;42.780;23.116;2022-07-30T11:40:24;6.05;;;5.35;;
55589;SDS011;41452;42.780;23.116;2022-07-30T11:42:51;10.93;;;6.07;;
55589;SDS011;41452;42.780;23.116;2022-07-30T11:45:36;7.07;;;5.72;;
55589;SDS011;41452;42.780;23.116;2022-07-30T11:48:05;5.45;;;4.90;;
55589;SDS011;41452;42.780;23.116;2022-07-30T11:50:34;26.50;;;7.13;;
55589;SDS011;41452;42.780;23.116;2022-07-30T11:53:02;12.25;;;6.38;;
55589;SDS011;41452;42.780;23.116;2022-07-30T11:55:30;16.02;;;7.35;;
55589;SDS011;41452;42.780;23.116;2022-07-30T11:57:57;6.38;;;5.45;;
55589;SDS011;41452;42.780;23.116;2022-07-30T12:00:24;7.22;;;5.38;;
55589;SDS011;41452;42.780;23.116;2022-07-30T12:02:57;7.63;;;5.28;;
55589;SDS011;41452;42.780;23.116;2022-07-30T12:05:25;8.45;;;5.60;;
55589;SDS011;41452;42.780;23.116;2022-07-30T12:07:57;7.38;;;5.18;;
55589;SDS011;41452;42.780;23.116;2022-07-30T12:10:23;8.95;;;5.18;;
55589;SDS011;41452;42.780;23.116;2022-07-30T12:12:49;7.15;;;5.38;;
55589;SDS011;41452;42.780;23.116;2022-07-30T12:15:31;8.63;;;5.50;;
55589;SDS011;41452;42.780;23.116;2022-07-30T12:17:58;6.40;;;5.57;;
55589;SDS011;41452;42.780;23.116;2022-07-30T12:20:25;11.57;;;6.03;;
55589;SDS011;41452;42.780;23.116;2022-07-30T12:22:51;11.02;;;5.63;;
55589;SDS011;41452;42.780;23.116;2022-07-30T12:25:16;10.98;;;5.85;;
55589;SDS011;41452;42.780;23.116;2022-07-30T12:27:46;7.57;;;5.63;;
55589;SDS011;41452;42.780;23.116;2022-07-30T12:30:13;8.48;;;5.55;;
55589;SDS011;41452;42.780;23.116;2022-07-30T12:32:39;12.88;;;6.10;;
55589;SDS011;41452;42.780;23.116;2022-07-30T12:35:06;7.75;;;5.97;;
55589;SDS011;41452;42.780;23.116;2022-07-30T12:37:32;8.55;;;5.32;;
55589;SDS011;41452;42.780;23.116;2022-07-30T12:42:30;8.15;;;5.68;;
55589;SDS011;41452;42.780;23.116;2022-07-30T12:44:56;7.28;;;5.53;;
55589;SDS011;41452;42.780;23.116;2022-07-30T12:47:23;13.00;;;6.22;;
55589;SDS011;41452;42.780;23.116;2022-07-30T12:49:50;12.07;;;5.30;;
55589;SDS011;41452;42.780;23.116;2022-07-30T12:57:49;9.32;;;6.30;;
55589;SDS011;41452;42.780;23.116;2022-07-30T13:03:19;8.45;;;5.95;;
55589;SDS011;41452;42.780;23.116;2022-07-30T13:05:47;8.45;;;5.32;;
55589;SDS011;41452;42.780;23.116;2022-07-30T13:08:14;6.70;;;6.00;;
55589;SDS011;41452;42.780;23.116;2022-07-30T13:10:53;10.48;;;5.97;;
55589;SDS011;41452;42.780;23.116;2022-07-30T13:13:23;9.97;;;5.57;;
55589;SDS011;41452;42.780;23.116;2022-07-30T13:15:59;9.23;;;5.95;;
55589;SDS011;41452;42.780;23.116;2022-07-30T13:18:30;8.13;;;5.70;;
55589;SDS011;41452;42.780;23.116;2022-07-30T13:20:56;6.47;;;5.35;;
55589;SDS011;41452;42.780;23.116;2022-07-30T13:23:23;7.10;;;5.82;;
55589;SDS011;41452;42.780;23.116;2022-07-30T13:25:49;7.78;;;5.65;;
55589;SDS011;41452;42.780;23.116;2022-07-30T13:28:15;9.90;;;6.30;;
55589;SDS011;41452;42.780;23.116;2022-07-30T13:30:41;8.38;;;5.78;;
55589;SDS011;41452;42.780;23.116;2022-07-30T13:33:07;10.23;;;6.20;;
55589;SDS011;41452;42.780;23.116;2022-07-30T13:35:33;9.65;;;6.15;;
55589;SDS011;41452;42.780;23.116;2022-07-30T13:37:58;10.82;;;6.95;;
55589;SDS011;41452;42.780;23.116;2022-07-30T13:40:25;9.23;;;6.93;;
55589;SDS011;41452;42.780;23.116;2022-07-30T13:42:56;14.38;;;7.57;;
55589;SDS011;41452;42.780;23.116;2022-07-30T13:45:25;9.35;;;7.30;;
55589;SDS011;41452;42.780;23.116;2022-07-30T13:47:51;11.15;;;8.25;;
55589;SDS011;41452;42.780;23.116;2022-07-30T13:50:16;14.45;;;8.45;;
55589;SDS011;41452;42.780;23.116;2022-07-30T13:52:42;10.60;;;7.18;;
55589;SDS011;41452;42.780;23.116;2022-07-30T13:55:08;11.32;;;7.72;;
55589;SDS011;41452;42.780;23.116;2022-07-30T13:57:34;8.77;;;7.40;;
55589;SDS011;41452;42.780;23.116;2022-07-30T13:59:59;9.95;;;7.47;;
55589;SDS011;41452;42.780;23.116;2022-07-30T14:02:25;9.73;;;7.88;;
55589;SDS011;41452;42.780;23.116;2022-07-30T14:04:50;12.40;;;7.85;;
55589;SDS011;41452;42.780;23.116;2022-07-30T14:07:16;10.68;;;7.95;;
55589;SDS011;41452;42.780;23.116;2022-07-30T14:09:41;11.52;;;8.00;;
55589;SDS011;41452;42.780;23.116;2022-07-30T14:12:06;8.98;;;7.45;;
55589;SDS011;41452;42.780;23.116;2022-07-30T14:14:32;10.77;;;6.97;;
55589;SDS011;41452;42.780;23.116;2022-07-30T14:16:57;8.43;;;7.18;;
55589;SDS011;41452;42.780;23.116;2022-07-30T14:19:23;10.32;;;7.10;;
55589;SDS011;41452;42.780;23.116;2022-07-30T14:21:48;9.45;;;6.55;;
55589;SDS011;41452;42.780;23.116;2022-07-30T14:24:14;9.90;;;7.47;;
55589;SDS011;41452;42.780;23.116;2022-07-30T14:26:40;9.82;;;6.93;;
55589;SDS011;41452;42.780;23.116;2022-07-30T14:29:07;7.18;;;6.47;;
55589;SDS011;41452;42.780;23.116;2022-07-30T14:31:33;12.65;;;7.18;;
55589;SDS011;41452;42.780;23.116;2022-07-30T14:33:59;7.85;;;7.03;;
55589;SDS011;41452;42.780;23.116;2022-07-30T14:36:24;8.57;;;6.28;;
55589;SDS011;41452;42.780;23.116;2022-07-30T14:38:54;8.85;;;6.45;;
55589;SDS011;41452;42.780;23.116;2022-07-30T14:41:23;8.10;;;6.07;;
55589;SDS011;41452;42.780;23.116;2022-07-30T14:43:49;6.97;;;6.25;;
55589;SDS011;41452;42.780;23.116;2022-07-30T14:46:15;7.05;;;5.93;;
55589;SDS011;41452;42.780;23.116;2022-07-30T14:48:41;6.63;;;5.75;;
55589;SDS011;41452;42.780;23.116;2022-07-30T14:51:06;6.43;;;5.43;;
55589;SDS011;41452;42.780;23.116;2022-07-30T14:53:32;7.28;;;5.45;;
55589;SDS011;41452;42.780;23.116;2022-07-30T14:55:57;7.00;;;5.55;;
55589;SDS011;41452;42.780;23.116;2022-07-30T14:58:23;14.57;;;5.75;;
55589;SDS011;41452;42.780;23.116;2022-07-30T15:00:48;12.23;;;5.72;;
55589;SDS011;41452;42.780;23.116;2022-07-30T15:03:14;6.50;;;5.05;;
55589;SDS011;41452;42.780;23.116;2022-07-30T15:05:40;9.07;;;5.25;;
55589;SDS011;41452;42.780;23.116;2022-07-30T15:08:05;7.75;;;4.97;;
55589;SDS011;41452;42.780;23.116;2022-07-30T15:10:31;7.43;;;5.22;;
55589;SDS011;41452;42.780;23.116;2022-07-30T15:12:57;8.32;;;6.03;;
55589;SDS011;41452;42.780;23.116;2022-07-30T15:15:22;8.98;;;6.50;;
55589;SDS011;41452;42.780;23.116;2022-07-30T15:17:48;7.68;;;5.93;;
55589;SDS011;41452;42.780;23.116;2022-07-30T15:20:13;8.55;;;6.30;;
55589;SDS011;41452;42.780;23.116;2022-07-30T15:22:38;10.52;;;6.65;;